Terminal Aerodrome Forecast
Issued by NWS Bismarck, ND

Home | Current Version | Previous Version | Graphics & Text | Print | Product List | Glossary On
Versions: 1 2 3 4 5 6 7 8 9 10 11 12 13 14 15 16 17 18 19 20 21 22 23 24 25
477
FTUS43 KBIS 232024 AAA
TAFBIS
TAF AMD
KBIS 232024Z 2320/2418 33006KT P6SM VCSH SCT007 OVC060
      TEMPO 2320/2323 5SM -RA
     FM240400 35007KT P6SM BKN130
     FM240500 35007KT 4SM BR BKN100
     FM240800 36007KT 1 1/2SM BR BKN050
     FM241100 36006KT 2SM BR BKN008=

USA.gov is the U.S. government's official web portal to all federal, state and local government web resources and services.